createdAt,value
2023-02-11T00:00:40.562Z,102786.31
2023-02-11T00:03:08.881Z,102794.22
2023-02-11T00:05:36.775Z,102789.56
2023-02-11T00:08:05.022Z,102802.91
2023-02-11T00:10:32.931Z,102805.75
2023-02-11T00:13:00.858Z,102815.47
2023-02-11T00:15:28.762Z,102805.66
2023-02-11T00:17:58.006Z,102801.13
2023-02-11T00:20:25.941Z,102801.00
2023-02-11T00:22:53.855Z,102798.34
2023-02-11T00:25:21.850Z,102796.53
2023-02-11T00:27:49.765Z,102794.63
2023-02-11T00:30:17.860Z,102788.47
2023-02-11T00:32:45.866Z,102777.72
2023-02-11T00:35:15.194Z,102773.22
2023-02-11T00:37:43.099Z,102791.91
2023-02-11T00:40:12.322Z,102791.97
2023-02-11T00:42:40.812Z,102789.09
2023-02-11T00:45:09.874Z,102783.88
2023-02-11T00:47:37.793Z,102785.72
2023-02-11T00:50:07.638Z,102774.22
2023-02-11T00:52:36.934Z,102773.25
2023-02-11T00:55:05.055Z,102766.84
2023-02-11T00:57:32.944Z,102779.47
2023-02-11T01:00:00.882Z,102787.44
2023-02-11T01:02:28.845Z,102798.34
2023-02-11T01:04:56.788Z,102804.94
2023-02-11T01:07:24.704Z,102797.44
2023-02-11T01:09:54.109Z,102797.28
2023-02-11T01:12:22.376Z,102794.13
2023-02-11T01:14:50.327Z,102804.53
2023-02-11T01:17:18.256Z,102795.47
2023-02-11T01:19:46.252Z,102797.72
2023-02-11T01:22:14.303Z,102792.06
2023-02-11T01:24:42.247Z,102797.69
2023-02-11T01:27:11.539Z,102805.75
2023-02-11T01:29:39.440Z,102810.06
2023-02-11T01:32:07.384Z,102823.63
2023-02-11T01:34:35.312Z,102820.94
2023-02-11T01:37:03.219Z,102828.09
2023-02-11T01:39:34.150Z,102822.59
2023-02-11T01:42:02.632Z,102818.31
2023-02-11T01:44:33.480Z,102825.66
2023-02-11T01:47:01.767Z,102832.03
2023-02-11T01:49:32.778Z,102845.94
2023-02-11T01:52:03.372Z,102851.41
2023-02-11T01:54:51.536Z,102852.09
2023-02-11T01:57:25.018Z,102849.28
2023-02-11T02:00:01.379Z,102851.09
2023-02-11T02:02:34.372Z,102847.50
2023-02-11T02:05:07.300Z,102841.22
2023-02-11T02:07:38.440Z,102853.81
2023-02-11T02:10:11.329Z,102854.56
2023-02-11T02:12:39.220Z,102857.25
2023-02-11T02:15:20.656Z,102862.63
2023-02-11T02:17:55.760Z,102846.72
2023-02-11T02:20:56.908Z,102842.00
2023-02-11T02:23:38.533Z,102850.22
2023-02-11T02:26:27.457Z,102853.50
2023-02-11T02:29:30.932Z,102841.81
2023-02-11T02:32:22.699Z,102846.31
2023-02-11T02:34:52.683Z,102842.34
2023-02-11T02:37:24.688Z,102839.72
2023-02-11T02:39:52.588Z,102845.59
2023-02-11T02:42:21.664Z,102839.72
2023-02-11T02:44:50.372Z,102841.75
2023-02-11T02:47:18.272Z,102837.44
2023-02-11T02:49:47.561Z,102838.41
2023-02-11T02:52:30.934Z,102825.13
2023-02-11T02:55:13.527Z,102824.22
2023-02-11T02:57:53.808Z,102824.50
2023-02-11T03:00:25.783Z,102819.25
2023-02-11T03:03:04.456Z,102809.41
2023-02-11T03:05:41.140Z,102809.41
2023-02-11T03:08:11.517Z,102810.25
2023-02-11T03:10:41.901Z,102802.19
2023-02-11T03:13:10.362Z,102808.97
2023-02-11T03:15:40.641Z,102808.19
2023-02-11T03:18:11.250Z,102799.13
2023-02-11T03:20:42.714Z,102806.16
2023-02-11T03:23:14.889Z,102801.53
2023-02-11T03:25:47.326Z,102798.84
2023-02-11T03:28:19.161Z,102800.00
2023-02-11T03:30:51.489Z,102801.41
2023-02-11T03:33:22.825Z,102786.75
2023-02-11T03:35:54.767Z,102785.97
2023-02-11T03:38:24.531Z,102777.78
2023-02-11T03:40:52.774Z,102770.63
2023-02-11T03:43:23.463Z,102769.22
2023-02-11T03:45:53.404Z,102770.41
2023-02-11T03:48:24.680Z,102773.78
2023-02-11T03:50:55.246Z,102768.59
2023-02-11T03:53:24.351Z,102760.44
2023-02-11T03:55:53.704Z,102758.09
2023-02-11T03:58:21.607Z,102770.75
2023-02-11T04:00:50.435Z,102762.97
2023-02-11T04:03:19.141Z,102760.81
2023-02-11T04:05:47.206Z,102760.97
2023-02-11T04:08:16.678Z,102765.59
2023-02-11T04:10:44.581Z,102763.09
2023-02-11T04:13:12.512Z,102762.53
2023-02-11T04:15:40.399Z,102763.28
2023-02-11T04:18:08.356Z,102771.78
2023-02-11T04:20:36.247Z,102767.16
2023-02-11T04:23:04.221Z,102779.13
2023-02-11T04:25:33.513Z,102776.13
2023-02-11T04:28:01.438Z,102765.38
2023-02-11T04:30:29.397Z,102767.69
2023-02-11T04:32:57.291Z,102762.13
2023-02-11T04:35:25.190Z,102774.88
2023-02-11T04:37:53.111Z,102774.88
2023-02-11T04:40:21.206Z,102781.34
2023-02-11T04:42:50.483Z,102773.25
2023-02-11T04:45:18.413Z,102762.41
2023-02-11T04:47:46.284Z,102770.94
2023-02-11T04:50:14.198Z,102768.75
2023-02-11T04:52:42.108Z,102786.47
2023-02-11T04:55:10.046Z,102782.94
2023-02-11T04:57:37.965Z,102768.63
2023-02-11T05:00:09.950Z,102768.78
2023-02-11T05:02:37.875Z,102787.84
2023-02-11T05:05:06.572Z,102789.28
2023-02-11T05:07:34.613Z,102808.88
2023-02-11T05:10:02.530Z,102809.53
2023-02-11T05:12:30.456Z,102809.72
2023-02-11T05:14:58.344Z,102809.72
2023-02-11T05:17:27.699Z,102813.28
2023-02-11T05:19:55.599Z,102800.53
2023-02-11T05:22:23.493Z,102804.69
2023-02-11T05:24:51.467Z,102800.88
2023-02-11T05:27:19.367Z,102805.59
2023-02-11T05:29:47.314Z,102814.69
2023-02-11T05:32:15.212Z,102806.59
2023-02-11T05:34:44.488Z,102818.69
2023-02-11T05:37:12.430Z,102817.38
2023-02-11T05:39:40.325Z,102829.44
2023-02-11T05:42:08.376Z,102839.09
2023-02-11T05:44:36.274Z,102838.19
2023-02-11T05:47:04.428Z,102846.44
2023-02-11T05:49:32.358Z,102851.53
2023-02-11T05:52:01.691Z,102846.06
2023-02-11T05:54:29.616Z,102851.25
2023-02-11T05:56:57.495Z,102852.78
2023-02-11T05:59:25.404Z,102849.13
2023-02-11T06:01:53.323Z,102856.06
2023-02-11T06:04:21.255Z,102868.81
2023-02-11T06:06:49.157Z,102866.81
2023-02-11T06:09:18.451Z,102874.91
2023-02-11T06:11:46.380Z,102868.44
2023-02-11T06:14:14.535Z,102871.38
2023-02-11T06:16:42.496Z,102861.66
2023-02-11T06:19:10.434Z,102873.47
2023-02-11T06:21:43.939Z,102869.03
2023-02-11T06:24:13.804Z,102862.00
2023-02-11T06:26:43.155Z,102866.63
2023-02-11T06:29:11.113Z,102864.75
2023-02-11T06:31:39.855Z,102876.28
2023-02-11T06:34:08.005Z,102883.72
2023-02-11T06:36:36.214Z,102893.38
2023-02-11T06:39:04.486Z,102909.69
2023-02-11T06:41:32.430Z,102907.81
2023-02-11T06:44:01.747Z,102911.41
2023-02-11T06:46:29.677Z,102918.63
2023-02-11T06:48:57.738Z,102915.53
2023-02-11T06:51:25.774Z,102928.25
2023-02-11T06:53:53.696Z,102931.56
2023-02-11T06:56:22.914Z,102933.22
2023-02-11T06:58:53.686Z,102931.25
2023-02-11T07:01:23.819Z,102940.44
2023-02-11T07:03:52.153Z,102952.84
2023-02-11T07:06:21.480Z,102952.03
2023-02-11T07:08:49.764Z,102949.25
2023-02-11T07:11:20.652Z,102956.91
2023-02-11T07:13:49.109Z,102973.75
2023-02-11T07:16:18.773Z,102970.09
2023-02-11T07:18:49.099Z,102986.94
2023-02-11T07:21:19.382Z,102979.06
2023-02-11T07:23:48.375Z,102993.53
2023-02-11T07:26:18.562Z,103009.31
2023-02-11T07:28:46.781Z,103004.91
2023-02-11T07:31:16.827Z,103008.00
2023-02-11T07:33:45.979Z,103005.09
2023-02-11T07:36:16.567Z,103013.81
2023-02-11T07:38:44.667Z,103018.09
2023-02-11T07:41:14.116Z,103018.38
2023-02-11T07:43:42.554Z,103025.00
2023-02-11T07:46:12.299Z,103034.38
2023-02-11T07:48:40.253Z,103041.25
2023-02-11T07:51:09.617Z,103049.34
2023-02-11T07:53:39.540Z,103060.03
2023-02-11T07:56:08.585Z,103069.00
2023-02-11T07:58:36.831Z,103083.34
2023-02-11T08:01:06.062Z,103080.50
2023-02-11T08:03:34.674Z,103082.59
2023-02-11T08:06:04.837Z,103101.34
2023-02-11T08:08:32.800Z,103103.03
2023-02-11T08:11:07.651Z,103101.94
2023-02-11T08:13:35.796Z,103105.66
2023-02-11T08:16:04.181Z,103117.25
2023-02-11T08:18:32.148Z,103107.53
2023-02-11T08:21:05.556Z,103107.47
2023-02-11T08:23:33.464Z,103118.13
2023-02-11T08:26:04.644Z,103123.09
2023-02-11T08:28:32.634Z,103130.19
2023-02-11T08:31:06.617Z,103136.91
2023-02-11T08:33:34.716Z,103142.97
2023-02-11T08:36:03.795Z,103146.59
2023-02-11T08:38:31.820Z,103139.78
2023-02-11T08:41:01.025Z,103151.19
2023-02-11T08:43:30.320Z,103147.31
2023-02-11T08:46:00.719Z,103157.19
2023-02-11T08:48:30.033Z,103153.34
2023-02-11T08:50:58.263Z,103157.97
2023-02-11T08:53:26.247Z,103155.31
2023-02-11T08:55:55.568Z,103159.16
2023-02-11T08:58:23.991Z,103160.84
2023-02-11T09:00:53.794Z,103162.41
2023-02-11T09:03:22.019Z,103162.31
2023-02-11T09:05:53.173Z,103161.50
2023-02-11T09:08:21.844Z,103164.00
2023-02-11T09:10:50.232Z,103176.56
2023-02-11T09:13:18.374Z,103191.03
2023-02-11T09:15:46.880Z,103193.94
2023-02-11T09:18:16.263Z,103199.91
2023-02-11T09:20:44.152Z,103203.75
2023-02-11T09:23:12.595Z,103210.84
2023-02-11T09:25:41.215Z,103203.03
2023-02-11T09:28:09.348Z,103209.75
2023-02-11T09:30:37.844Z,103219.88
2023-02-11T09:33:05.896Z,103222.50
2023-02-11T09:35:35.909Z,103233.13
2023-02-11T09:38:03.827Z,103236.69
2023-02-11T09:40:31.845Z,103236.72
2023-02-11T09:43:05.672Z,103229.59
2023-02-11T09:45:33.737Z,103241.19
2023-02-11T09:48:05.882Z,103234.03
2023-02-11T09:50:37.200Z,103245.69
2023-02-11T09:53:07.992Z,103249.38
2023-02-11T09:55:39.523Z,103250.38
2023-02-11T09:58:13.624Z,103252.78
2023-02-11T10:00:44.617Z,103250.88
2023-02-11T10:03:28.189Z,103247.41
2023-02-11T10:06:21.635Z,103242.91
2023-02-11T10:09:00.655Z,103244.81
2023-02-11T10:11:34.691Z,103245.25
2023-02-11T10:14:12.792Z,103246.03
2023-02-11T10:16:53.511Z,103258.81
2023-02-11T10:19:32.006Z,103264.81
2023-02-11T10:22:09.144Z,103268.44
2023-02-11T10:24:37.293Z,103265.84
2023-02-11T10:27:13.868Z,103270.31
2023-02-11T10:29:44.871Z,103280.81
2023-02-11T10:32:17.371Z,103278.56
2023-02-11T10:34:45.301Z,103294.38
2023-02-11T10:37:14.996Z,103297.13
2023-02-11T10:39:42.961Z,103297.06
2023-02-11T10:42:13.554Z,103304.22
2023-02-11T10:44:45.220Z,103305.91
2023-02-11T10:47:15.780Z,103305.78
2023-02-11T10:49:44.709Z,103298.16
2023-02-11T10:52:25.535Z,103302.19
2023-02-11T10:55:06.079Z,103313.00
2023-02-11T10:57:38.690Z,103306.59
2023-02-11T11:00:22.131Z,103304.91
2023-02-11T11:02:55.922Z,103305.66
2023-02-11T11:05:29.887Z,103308.50
2023-02-11T11:08:01.265Z,103313.66
2023-02-11T11:10:43.632Z,103309.09
2023-02-11T11:13:32.122Z,103311.91
2023-02-11T11:16:25.071Z,103301.94
2023-02-11T11:18:54.356Z,103303.81
2023-02-11T11:21:24.738Z,103303.91
2023-02-11T11:23:59.286Z,103303.56
2023-02-11T11:26:28.729Z,103303.72
2023-02-11T11:29:02.362Z,103329.56
2023-02-11T11:31:33.300Z,103317.91
2023-02-11T11:34:03.017Z,103315.06
2023-02-11T11:36:36.440Z,103310.56
2023-02-11T11:39:18.955Z,103321.94
2023-02-11T11:41:54.671Z,103317.53
2023-02-11T11:44:31.672Z,103315.94
2023-02-11T11:47:20.868Z,103304.84
2023-02-11T11:49:52.986Z,103308.47
2023-02-11T11:52:30.032Z,103313.59
2023-02-11T11:55:03.664Z,103310.03
2023-02-11T11:57:32.764Z,103323.66
2023-02-11T12:00:00.717Z,103330.50
2023-02-11T12:02:52.234Z,103336.88
2023-02-11T12:05:24.723Z,103333.19
2023-02-11T12:08:02.024Z,103332.44
2023-02-11T12:10:50.037Z,103336.03
2023-02-11T12:13:27.776Z,103333.47
2023-02-11T12:16:01.664Z,103332.38
2023-02-11T12:18:47.533Z,103324.84
2023-02-11T12:21:36.347Z,103329.69
2023-02-11T12:24:23.865Z,103331.44
2023-02-11T12:26:58.180Z,103335.16
2023-02-11T12:29:33.451Z,103336.78
2023-02-11T12:32:11.770Z,103340.31
2023-02-11T12:34:59.116Z,103348.47
2023-02-11T12:37:36.447Z,103350.53
2023-02-11T12:40:14.386Z,103355.75
2023-02-11T12:43:09.810Z,103365.59
2023-02-11T12:46:02.567Z,103371.84
2023-02-11T12:48:41.787Z,103383.50
2023-02-11T12:51:19.772Z,103385.28
2023-02-11T12:54:05.887Z,103385.34
2023-02-11T12:56:39.713Z,103386.19
2023-02-11T12:59:14.569Z,103382.66
2023-02-11T13:01:43.897Z,103373.59
2023-02-11T13:04:18.643Z,103367.19
2023-02-11T13:06:50.541Z,103370.84
2023-02-11T13:09:21.299Z,103358.63
2023-02-11T13:11:52.827Z,103377.97
2023-02-11T13:14:27.214Z,103367.28
2023-02-11T13:16:55.738Z,103363.59
2023-02-11T13:19:27.831Z,103358.22
2023-02-11T13:22:06.644Z,103359.00
2023-02-11T13:24:41.637Z,103361.63
2023-02-11T13:27:16.525Z,103369.72
2023-02-11T13:30:20.449Z,103367.91
2023-02-11T13:33:06.600Z,103372.31
2023-02-11T13:35:35.926Z,103378.63
2023-02-11T13:38:05.031Z,103379.47
2023-02-11T13:40:35.150Z,103382.28
2023-02-11T13:43:05.058Z,103385.84
2023-02-11T13:45:38.370Z,103386.56
2023-02-11T13:48:08.282Z,103383.00
2023-02-11T13:50:39.595Z,103380.25
2023-02-11T13:53:08.752Z,103382.66
2023-02-11T13:55:36.871Z,103379.84
2023-02-11T13:58:18.709Z,103382.53
2023-02-11T14:00:50.920Z,103387.03
2023-02-11T14:03:45.553Z,103382.75
2023-02-11T14:06:37.103Z,103389.66
2023-02-11T14:09:39.338Z,103390.84
2023-02-11T14:12:32.157Z,103395.97
2023-02-11T14:15:21.676Z,103401.38
2023-02-11T14:17:52.465Z,103397.97
2023-02-11T14:20:36.582Z,103407.63
2023-02-11T14:23:05.375Z,103400.34
2023-02-11T14:25:33.484Z,103406.53
2023-02-11T14:28:05.362Z,103414.97
2023-02-11T14:30:47.351Z,103396.84
2023-02-11T14:33:42.124Z,103405.47
2023-02-11T14:36:21.254Z,103404.53
2023-02-11T14:39:00.013Z,103396.44
2023-02-11T14:41:29.367Z,103393.84
2023-02-11T14:43:59.806Z,103406.28
2023-02-11T14:46:30.174Z,103412.69
2023-02-11T14:49:01.061Z,103416.09
2023-02-11T14:51:31.277Z,103406.56
2023-02-11T14:54:00.656Z,103417.16
2023-02-11T14:56:31.532Z,103417.34
2023-02-11T14:58:59.717Z,103415.66
2023-02-11T15:01:31.279Z,103425.66
2023-02-11T15:04:01.399Z,103436.50
2023-02-11T15:06:31.605Z,103437.56
2023-02-11T15:09:01.908Z,103437.63
2023-02-11T15:11:32.851Z,103443.75
2023-02-11T15:14:08.562Z,103442.03
2023-02-11T15:16:42.109Z,103447.53
2023-02-11T15:19:21.091Z,103464.47
2023-02-11T15:21:50.598Z,103460.16
2023-02-11T15:24:27.535Z,103456.56
2023-02-11T15:27:00.263Z,103455.66
2023-02-11T15:29:29.396Z,103462.84
2023-02-11T15:32:08.709Z,103457.66
2023-02-11T15:34:38.211Z,103461.34
2023-02-11T15:37:06.580Z,103463.41
2023-02-11T15:39:36.658Z,103463.91
2023-02-11T15:42:18.743Z,103471.16
2023-02-11T15:44:50.527Z,103466.63
2023-02-11T15:47:22.993Z,103465.88
2023-02-11T15:49:52.312Z,103465.75
2023-02-11T15:52:25.049Z,103462.25
2023-02-11T15:54:53.723Z,103460.47
2023-02-11T15:57:23.018Z,103463.38
2023-02-11T15:59:52.883Z,103465.00
2023-02-11T16:02:29.831Z,103456.16
2023-02-11T16:05:00.120Z,103463.16
2023-02-11T16:07:46.063Z,103463.31
2023-02-11T16:10:25.825Z,103465.03
2023-02-11T16:12:55.846Z,103465.13
2023-02-11T16:15:50.746Z,103468.69
2023-02-11T16:18:37.362Z,103465.03
2023-02-11T16:21:09.520Z,103473.13
2023-02-11T16:23:39.587Z,103477.53
2023-02-11T16:26:11.557Z,103482.13
2023-02-11T16:28:39.729Z,103484.00
2023-02-11T16:31:07.861Z,103479.56
2023-02-11T16:33:35.836Z,103481.31
2023-02-11T16:36:13.020Z,103486.63
2023-02-11T16:38:41.275Z,103491.25
2023-02-11T16:41:11.856Z,103486.72
2023-02-11T16:43:40.009Z,103487.59
2023-02-11T16:46:09.382Z,103493.97
2023-02-11T16:48:37.339Z,103509.28
2023-02-11T16:51:05.452Z,103506.69
2023-02-11T16:53:34.733Z,103508.31
2023-02-11T16:56:02.647Z,103520.88
2023-02-11T16:58:30.549Z,103521.81
2023-02-11T17:00:58.781Z,103523.66
2023-02-11T17:03:29.837Z,103524.53
2023-02-11T17:05:58.017Z,103522.78
2023-02-11T17:08:25.964Z,103528.38
2023-02-11T17:10:55.263Z,103537.25
2023-02-11T17:13:23.160Z,103541.97
2023-02-11T17:15:51.437Z,103547.72
2023-02-11T17:18:19.514Z,103555.63
2023-02-11T17:20:47.588Z,103560.19
2023-02-11T17:23:15.512Z,103557.50
2023-02-11T17:25:43.476Z,103555.63
2023-02-11T17:28:13.124Z,103552.53
2023-02-11T17:30:43.591Z,103554.41
2023-02-11T17:33:11.539Z,103554.91
2023-02-11T17:35:41.543Z,103558.66
2023-02-11T17:38:09.444Z,103556.03
2023-02-11T17:40:37.340Z,103553.38
2023-02-11T17:43:05.634Z,103551.56
2023-02-11T17:45:37.644Z,103544.38
2023-02-11T17:48:05.780Z,103557.03
2023-02-11T17:50:37.051Z,103561.03
2023-02-11T17:53:05.081Z,103571.44
2023-02-11T17:55:34.292Z,103572.75
2023-02-11T17:58:02.356Z,103571.59
2023-02-11T18:00:30.268Z,103573.56
2023-02-11T18:03:02.789Z,103569.72
2023-02-11T18:05:35.287Z,103578.94
2023-02-11T18:08:03.447Z,103588.22
2023-02-11T18:10:31.751Z,103588.13
2023-02-11T18:12:59.651Z,103590.47
2023-02-11T18:15:27.906Z,103588.22
2023-02-11T18:17:56.602Z,103597.69
2023-02-11T18:20:25.914Z,103602.25
2023-02-11T18:22:53.829Z,103606.69
2023-02-11T18:25:21.839Z,103619.44
2023-02-11T18:27:49.753Z,103626.63
2023-02-11T18:30:20.282Z,103636.59
2023-02-11T18:32:48.336Z,103638.19
2023-02-11T18:35:16.343Z,103630.47
2023-02-11T18:37:45.656Z,103625.66
2023-02-11T18:40:14.090Z,103634.00
2023-02-11T18:42:42.886Z,103634.59
2023-02-11T18:45:13.263Z,103639.41
2023-02-11T18:47:41.922Z,103649.38
2023-02-11T18:50:13.804Z,103656.56
2023-02-11T18:52:41.880Z,103668.78
2023-02-11T18:55:11.315Z,103672.50
2023-02-11T18:57:39.237Z,103670.03
2023-02-11T19:00:10.108Z,103664.41
2023-02-11T19:02:38.059Z,103661.81
2023-02-11T19:05:06.969Z,103667.34
2023-02-11T19:07:34.944Z,103668.09
2023-02-11T19:10:02.920Z,103663.44
2023-02-11T19:12:33.176Z,103661.88
2023-02-11T19:15:01.611Z,103657.56
2023-02-11T19:17:29.553Z,103663.47
2023-02-11T19:19:57.427Z,103667.13
2023-02-11T19:22:25.321Z,103667.34
2023-02-11T19:24:53.232Z,103679.66
2023-02-11T19:27:21.140Z,103685.50
2023-02-11T19:29:50.499Z,103697.72
2023-02-11T19:32:18.417Z,103698.59
2023-02-11T19:34:46.299Z,103709.03
2023-02-11T19:37:14.388Z,103710.28
2023-02-11T19:39:42.854Z,103705.88
2023-02-11T19:42:36.571Z,103705.00
2023-02-11T19:45:07.391Z,103712.94
2023-02-11T19:47:35.332Z,103708.38
2023-02-11T19:50:03.444Z,103714.88
2023-02-11T19:52:31.339Z,103718.25
2023-02-11T19:54:59.240Z,103723.91
2023-02-11T19:57:27.250Z,103716.97
2023-02-11T19:59:56.958Z,103722.28
2023-02-11T20:02:26.351Z,103728.53
2023-02-11T20:04:54.332Z,103739.31
2023-02-11T20:07:22.235Z,103728.94
2023-02-11T20:09:50.141Z,103733.75
2023-02-11T20:12:18.060Z,103730.09
2023-02-11T20:14:45.961Z,103741.94
2023-02-11T20:17:13.933Z,103738.19
2023-02-11T20:19:43.243Z,103732.88
2023-02-11T20:22:11.246Z,103730.06
2023-02-11T20:24:39.160Z,103730.25
2023-02-11T20:27:08.495Z,103715.09
2023-02-11T20:29:36.470Z,103730.47
2023-02-11T20:32:04.874Z,103723.19
2023-02-11T20:34:33.319Z,103727.53
2023-02-11T20:37:04.186Z,103725.91
2023-02-11T20:39:32.095Z,103728.81
2023-02-11T20:42:00.013Z,103739.25
2023-02-11T20:44:28.133Z,103743.81
2023-02-11T20:46:56.029Z,103745.81
2023-02-11T20:49:25.380Z,103743.81
2023-02-11T20:51:53.961Z,103753.03
2023-02-11T20:54:24.476Z,103760.97
2023-02-11T20:56:53.935Z,103760.66
2023-02-11T20:59:22.254Z,103775.56
2023-02-11T21:01:53.440Z,103780.78
2023-02-11T21:04:23.913Z,103786.09
2023-02-11T21:06:54.194Z,103776.34
2023-02-11T21:09:25.453Z,103783.59
2023-02-11T21:11:54.527Z,103790.81
2023-02-11T21:14:23.417Z,103784.50
2023-02-11T21:16:52.457Z,103782.78
2023-02-11T21:19:20.460Z,103790.13
2023-02-11T21:21:48.380Z,103797.19
2023-02-11T21:24:16.533Z,103807.19
2023-02-11T21:26:45.843Z,103809.19
2023-02-11T21:29:13.786Z,103818.25
2023-02-11T21:31:41.840Z,103825.25
2023-02-11T21:34:11.009Z,103828.97
2023-02-11T21:36:38.953Z,103826.28
2023-02-11T21:39:47.364Z,103832.47
2023-02-11T21:42:16.831Z,103843.22
2023-02-11T21:45:10.802Z,103848.69
2023-02-11T21:47:38.711Z,103852.31
2023-02-11T21:50:07.585Z,103853.28
2023-02-11T21:52:35.519Z,103869.38
2023-02-11T21:55:03.483Z,103862.28
2023-02-11T21:57:32.795Z,103866.81
2023-02-11T22:00:00.744Z,103867.88
2023-02-11T22:02:28.695Z,103872.16
2023-02-11T22:04:56.645Z,103869.59
2023-02-11T22:07:25.104Z,103876.84
2023-02-11T22:09:54.742Z,103882.28
2023-02-11T22:12:22.709Z,103893.94
2023-02-11T22:14:52.043Z,103892.25
2023-02-11T22:17:20.015Z,103898.41
2023-02-11T22:19:47.951Z,103894.84
2023-02-11T22:22:18.285Z,103892.38
2023-02-11T22:24:46.978Z,103891.50
2023-02-11T22:27:14.984Z,103902.13
2023-02-11T22:29:42.931Z,103896.88
2023-02-11T22:32:12.319Z,103906.72
2023-02-11T22:34:40.336Z,103906.78
2023-02-11T22:37:08.616Z,103913.13
2023-02-11T22:39:36.505Z,103915.81
2023-02-11T22:42:04.602Z,103909.53
2023-02-11T22:44:32.480Z,103918.56
2023-02-11T22:47:00.387Z,103920.44
2023-02-11T22:49:32.440Z,103920.44
2023-02-11T22:52:00.482Z,103921.28
2023-02-11T22:54:28.557Z,103922.28
2023-02-11T22:56:56.433Z,103927.69
2023-02-11T22:59:24.389Z,103929.63
2023-02-11T23:01:52.454Z,103935.78
2023-02-11T23:04:20.970Z,103935.88
2023-02-11T23:06:50.524Z,103944.78
2023-02-11T23:09:18.492Z,103953.69
2023-02-11T23:11:46.956Z,103961.00
2023-02-11T23:14:14.876Z,103960.16
2023-02-11T23:16:42.984Z,103961.00
2023-02-11T23:19:12.380Z,103965.56
2023-02-11T23:21:41.014Z,103971.91
2023-02-11T23:24:14.369Z,103974.59
2023-02-11T23:26:43.142Z,103978.19
2023-02-11T23:29:11.299Z,103981.84
2023-02-11T23:31:43.417Z,103977.38
2023-02-11T23:34:11.476Z,103983.69
2023-02-11T23:36:39.622Z,103993.59
2023-02-11T23:39:07.587Z,103988.19
2023-02-11T23:41:36.840Z,103987.47
2023-02-11T23:44:04.812Z,103999.03
2023-02-11T23:46:32.734Z,104001.72
2023-02-11T23:49:00.995Z,104005.38
2023-02-11T23:51:28.962Z,104009.13
2023-02-11T23:53:57.098Z,104011.66
2023-02-11T23:56:26.454Z,104004.59
2023-02-11T23:58:58.375Z,104006.28
